sensor_id;sensor_type;location;lat;lon;timestamp;P1;durP1;ratioP1;P2;durP2;ratioP2
19794;SDS011;10057;59.402;17.866;2022-09-27T00:02:24;10.33;;;4.07;;
19794;SDS011;10057;59.402;17.866;2022-09-27T00:04:51;9.43;;;3.87;;
19794;SDS011;10057;59.402;17.866;2022-09-27T00:07:18;10.00;;;3.73;;
19794;SDS011;10057;59.402;17.866;2022-09-27T00:09:44;10.80;;;4.13;;
19794;SDS011;10057;59.402;17.866;2022-09-27T00:12:11;7.10;;;3.63;;
19794;SDS011;10057;59.402;17.866;2022-09-27T00:14:38;6.77;;;3.80;;
19794;SDS011;10057;59.402;17.866;2022-09-27T00:17:04;6.17;;;3.83;;
19794;SDS011;10057;59.402;17.866;2022-09-27T00:19:31;8.30;;;3.70;;
19794;SDS011;10057;59.402;17.866;2022-09-27T00:21:57;9.47;;;3.83;;
19794;SDS011;10057;59.402;17.866;2022-09-27T00:24:26;7.53;;;3.90;;
19794;SDS011;10057;59.402;17.866;2022-09-27T00:26:53;8.77;;;3.53;;
19794;SDS011;10057;59.402;17.866;2022-09-27T00:29:20;6.77;;;2.90;;
19794;SDS011;10057;59.402;17.866;2022-09-27T00:31:46;6.37;;;2.83;;
19794;SDS011;10057;59.402;17.866;2022-09-27T00:34:18;4.53;;;2.47;;
19794;SDS011;10057;59.402;17.866;2022-09-27T00:36:47;6.40;;;2.43;;
19794;SDS011;10057;59.402;17.866;2022-09-27T00:39:14;6.60;;;2.73;;
19794;SDS011;10057;59.402;17.866;2022-09-27T00:41:42;3.60;;;2.30;;
19794;SDS011;10057;59.402;17.866;2022-09-27T00:52:18;4.27;;;2.13;;
19794;SDS011;10057;59.402;17.866;2022-09-27T00:54:50;2.97;;;1.80;;
19794;SDS011;10057;59.402;17.866;2022-09-27T00:57:20;5.73;;;1.90;;
19794;SDS011;10057;59.402;17.866;2022-09-27T00:59:49;3.17;;;1.63;;
19794;SDS011;10057;59.402;17.866;2022-09-27T01:02:19;3.70;;;1.63;;
19794;SDS011;10057;59.402;17.866;2022-09-27T01:04:46;6.53;;;1.73;;
19794;SDS011;10057;59.402;17.866;2022-09-27T01:07:15;4.37;;;1.50;;
19794;SDS011;10057;59.402;17.866;2022-09-27T01:09:41;3.30;;;1.30;;
19794;SDS011;10057;59.402;17.866;2022-09-27T01:29:37;3.63;;;1.10;;
19794;SDS011;10057;59.402;17.866;2022-09-27T01:32:28;1.70;;;0.97;;
19794;SDS011;10057;59.402;17.866;2022-09-27T01:35:28;2.73;;;1.23;;
19794;SDS011;10057;59.402;17.866;2022-09-27T01:38:13;2.90;;;1.03;;
19794;SDS011;10057;59.402;17.866;2022-09-27T01:40:57;2.67;;;1.20;;
19794;SDS011;10057;59.402;17.866;2022-09-27T01:46:28;2.63;;;1.00;;
19794;SDS011;10057;59.402;17.866;2022-09-27T01:49:01;2.50;;;0.97;;
19794;SDS011;10057;59.402;17.866;2022-09-27T01:51:41;3.40;;;1.13;;
19794;SDS011;10057;59.402;17.866;2022-09-27T01:54:15;3.33;;;0.90;;
19794;SDS011;10057;59.402;17.866;2022-09-27T01:56:47;2.00;;;1.00;;
19794;SDS011;10057;59.402;17.866;2022-09-27T01:59:26;4.60;;;1.30;;
19794;SDS011;10057;59.402;17.866;2022-09-27T02:01:59;7.40;;;1.17;;
19794;SDS011;10057;59.402;17.866;2022-09-27T02:04:30;5.13;;;1.20;;
19794;SDS011;10057;59.402;17.866;2022-09-27T02:07:05;3.40;;;1.13;;
19794;SDS011;10057;59.402;17.866;2022-09-27T02:09:37;2.80;;;1.20;;
19794;SDS011;10057;59.402;17.866;2022-09-27T02:12:22;4.77;;;1.00;;
19794;SDS011;10057;59.402;17.866;2022-09-27T02:15:00;4.77;;;1.30;;
19794;SDS011;10057;59.402;17.866;2022-09-27T02:25:53;3.90;;;1.03;;
19794;SDS011;10057;59.402;17.866;2022-09-27T02:28:27;4.33;;;1.40;;
19794;SDS011;10057;59.402;17.866;2022-09-27T02:30:59;2.63;;;1.10;;
19794;SDS011;10057;59.402;17.866;2022-09-27T02:33:30;3.87;;;1.10;;
19794;SDS011;10057;59.402;17.866;2022-09-27T02:36:02;2.20;;;1.03;;
19794;SDS011;10057;59.402;17.866;2022-09-27T02:38:30;4.60;;;1.27;;
19794;SDS011;10057;59.402;17.866;2022-09-27T02:40:57;4.77;;;1.33;;
19794;SDS011;10057;59.402;17.866;2022-09-27T02:43:25;4.20;;;1.27;;
19794;SDS011;10057;59.402;17.866;2022-09-27T02:48:53;3.07;;;1.13;;
19794;SDS011;10057;59.402;17.866;2022-09-27T02:54:44;8.93;;;1.30;;
19794;SDS011;10057;59.402;17.866;2022-09-27T03:05:09;5.13;;;1.20;;
19794;SDS011;10057;59.402;17.866;2022-09-27T03:07:41;4.23;;;1.37;;
19794;SDS011;10057;59.402;17.866;2022-09-27T03:10:14;1.63;;;1.23;;
19794;SDS011;10057;59.402;17.866;2022-09-27T03:12:43;8.17;;;1.43;;
19794;SDS011;10057;59.402;17.866;2022-09-27T03:15:10;3.80;;;1.30;;
19794;SDS011;10057;59.402;17.866;2022-09-27T03:17:36;7.40;;;1.30;;
19794;SDS011;10057;59.402;17.866;2022-09-27T03:20:03;6.03;;;1.43;;
19794;SDS011;10057;59.402;17.866;2022-09-27T03:22:30;3.50;;;1.63;;
19794;SDS011;10057;59.402;17.866;2022-09-27T03:24:57;7.80;;;1.50;;
19794;SDS011;10057;59.402;17.866;2022-09-27T03:27:24;5.47;;;1.93;;
19794;SDS011;10057;59.402;17.866;2022-09-27T03:29:50;5.10;;;1.53;;
19794;SDS011;10057;59.402;17.866;2022-09-27T03:32:17;7.70;;;2.07;;
19794;SDS011;10057;59.402;17.866;2022-09-27T03:34:44;4.13;;;1.70;;
19794;SDS011;10057;59.402;17.866;2022-09-27T03:37:11;4.97;;;1.50;;
19794;SDS011;10057;59.402;17.866;2022-09-27T03:39:37;7.27;;;1.60;;
19794;SDS011;10057;59.402;17.866;2022-09-27T03:42:05;8.33;;;1.70;;
19794;SDS011;10057;59.402;17.866;2022-09-27T03:44:31;6.77;;;1.60;;
19794;SDS011;10057;59.402;17.866;2022-09-27T03:46:58;4.00;;;1.50;;
19794;SDS011;10057;59.402;17.866;2022-09-27T03:49:25;5.10;;;1.50;;
19794;SDS011;10057;59.402;17.866;2022-09-27T03:51:51;3.30;;;1.53;;
19794;SDS011;10057;59.402;17.866;2022-09-27T03:54:18;4.30;;;1.63;;
19794;SDS011;10057;59.402;17.866;2022-09-27T03:56:45;4.03;;;1.77;;
19794;SDS011;10057;59.402;17.866;2022-09-27T03:59:12;3.57;;;1.60;;
19794;SDS011;10057;59.402;17.866;2022-09-27T04:01:39;3.70;;;1.60;;
19794;SDS011;10057;59.402;17.866;2022-09-27T04:04:06;3.33;;;1.10;;
19794;SDS011;10057;59.402;17.866;2022-09-27T04:06:36;5.37;;;1.70;;
19794;SDS011;10057;59.402;17.866;2022-09-27T04:09:03;3.37;;;1.23;;
19794;SDS011;10057;59.402;17.866;2022-09-27T04:11:29;7.67;;;1.47;;
19794;SDS011;10057;59.402;17.866;2022-09-27T04:13:56;2.70;;;1.50;;
19794;SDS011;10057;59.402;17.866;2022-09-27T04:16:24;5.80;;;1.50;;
19794;SDS011;10057;59.402;17.866;2022-09-27T04:18:50;6.03;;;1.40;;
19794;SDS011;10057;59.402;17.866;2022-09-27T04:21:17;5.23;;;1.20;;
19794;SDS011;10057;59.402;17.866;2022-09-27T04:23:45;5.00;;;1.30;;
19794;SDS011;10057;59.402;17.866;2022-09-27T04:26:12;3.07;;;1.33;;
19794;SDS011;10057;59.402;17.866;2022-09-27T04:28:39;4.83;;;1.60;;
19794;SDS011;10057;59.402;17.866;2022-09-27T04:31:05;4.33;;;1.50;;
19794;SDS011;10057;59.402;17.866;2022-09-27T04:33:32;2.97;;;1.20;;
19794;SDS011;10057;59.402;17.866;2022-09-27T04:35:59;4.20;;;1.10;;
19794;SDS011;10057;59.402;17.866;2022-09-27T04:38:44;6.10;;;1.30;;
19794;SDS011;10057;59.402;17.866;2022-09-27T04:41:11;5.73;;;1.60;;
19794;SDS011;10057;59.402;17.866;2022-09-27T04:43:38;3.87;;;1.40;;
19794;SDS011;10057;59.402;17.866;2022-09-27T04:46:05;6.07;;;1.40;;
19794;SDS011;10057;59.402;17.866;2022-09-27T04:48:32;5.97;;;1.57;;
19794;SDS011;10057;59.402;17.866;2022-09-27T04:50:59;4.03;;;1.37;;
19794;SDS011;10057;59.402;17.866;2022-09-27T04:53:28;6.87;;;1.63;;
19794;SDS011;10057;59.402;17.866;2022-09-27T04:55:55;5.37;;;1.60;;
19794;SDS011;10057;59.402;17.866;2022-09-27T04:58:22;3.10;;;1.60;;
19794;SDS011;10057;59.402;17.866;2022-09-27T05:00:49;5.03;;;1.40;;
19794;SDS011;10057;59.402;17.866;2022-09-27T05:03:17;2.13;;;1.37;;
19794;SDS011;10057;59.402;17.866;2022-09-27T05:05:44;3.33;;;1.50;;
19794;SDS011;10057;59.402;17.866;2022-09-27T05:08:11;4.13;;;1.47;;
19794;SDS011;10057;59.402;17.866;2022-09-27T05:10:38;5.37;;;1.53;;
19794;SDS011;10057;59.402;17.866;2022-09-27T05:13:05;3.50;;;1.40;;
19794;SDS011;10057;59.402;17.866;2022-09-27T05:15:35;5.00;;;1.47;;
19794;SDS011;10057;59.402;17.866;2022-09-27T05:18:01;3.63;;;1.40;;
19794;SDS011;10057;59.402;17.866;2022-09-27T05:20:28;6.10;;;1.40;;
19794;SDS011;10057;59.402;17.866;2022-09-27T05:22:54;4.37;;;1.23;;
19794;SDS011;10057;59.402;17.866;2022-09-27T05:25:22;6.17;;;1.40;;
19794;SDS011;10057;59.402;17.866;2022-09-27T05:27:49;5.10;;;1.70;;
19794;SDS011;10057;59.402;17.866;2022-09-27T05:30:16;3.67;;;1.60;;
19794;SDS011;10057;59.402;17.866;2022-09-27T05:32:43;11.40;;;1.80;;
19794;SDS011;10057;59.402;17.866;2022-09-27T05:35:11;4.57;;;1.60;;
19794;SDS011;10057;59.402;17.866;2022-09-27T05:37:38;6.97;;;1.80;;
19794;SDS011;10057;59.402;17.866;2022-09-27T05:40:06;5.70;;;1.80;;
19794;SDS011;10057;59.402;17.866;2022-09-27T05:42:48;5.03;;;1.80;;
19794;SDS011;10057;59.402;17.866;2022-09-27T05:45:15;7.00;;;1.60;;
19794;SDS011;10057;59.402;17.866;2022-09-27T05:47:51;5.83;;;1.50;;
19794;SDS011;10057;59.402;17.866;2022-09-27T05:50:22;11.80;;;1.70;;
19794;SDS011;10057;59.402;17.866;2022-09-27T05:52:49;6.47;;;2.10;;
19794;SDS011;10057;59.402;17.866;2022-09-27T05:55:17;5.03;;;1.60;;
19794;SDS011;10057;59.402;17.866;2022-09-27T05:57:53;10.30;;;1.80;;
19794;SDS011;10057;59.402;17.866;2022-09-27T06:00:24;5.67;;;1.60;;
19794;SDS011;10057;59.402;17.866;2022-09-27T06:02:59;10.13;;;2.20;;
19794;SDS011;10057;59.402;17.866;2022-09-27T06:05:33;4.60;;;1.50;;
19794;SDS011;10057;59.402;17.866;2022-09-27T06:08:16;5.60;;;1.47;;
19794;SDS011;10057;59.402;17.866;2022-09-27T06:10:45;5.83;;;1.80;;
19794;SDS011;10057;59.402;17.866;2022-09-27T06:13:13;3.83;;;1.63;;
19794;SDS011;10057;59.402;17.866;2022-09-27T06:15:41;3.57;;;1.60;;
19794;SDS011;10057;59.402;17.866;2022-09-27T06:18:10;4.60;;;1.50;;
19794;SDS011;10057;59.402;17.866;2022-09-27T06:20:39;5.13;;;1.43;;
19794;SDS011;10057;59.402;17.866;2022-09-27T06:23:09;5.13;;;1.60;;
19794;SDS011;10057;59.402;17.866;2022-09-27T06:25:40;4.13;;;1.50;;
19794;SDS011;10057;59.402;17.866;2022-09-27T06:28:07;4.97;;;1.63;;
19794;SDS011;10057;59.402;17.866;2022-09-27T06:30:37;6.90;;;1.53;;
19794;SDS011;10057;59.402;17.866;2022-09-27T06:33:08;5.07;;;1.50;;
19794;SDS011;10057;59.402;17.866;2022-09-27T06:35:37;4.90;;;1.50;;
19794;SDS011;10057;59.402;17.866;2022-09-27T06:38:16;8.47;;;1.73;;
19794;SDS011;10057;59.402;17.866;2022-09-27T06:40:43;5.77;;;1.57;;
19794;SDS011;10057;59.402;17.866;2022-09-27T06:43:13;9.17;;;1.67;;
19794;SDS011;10057;59.402;17.866;2022-09-27T06:45:41;5.73;;;1.30;;
19794;SDS011;10057;59.402;17.866;2022-09-27T06:48:10;2.23;;;1.27;;
19794;SDS011;10057;59.402;17.866;2022-09-27T06:50:40;7.43;;;1.30;;
19794;SDS011;10057;59.402;17.866;2022-09-27T06:53:09;5.70;;;1.60;;
19794;SDS011;10057;59.402;17.866;2022-09-27T06:55:38;7.27;;;1.60;;
19794;SDS011;10057;59.402;17.866;2022-09-27T06:58:05;4.07;;;1.23;;
19794;SDS011;10057;59.402;17.866;2022-09-27T07:00:52;4.73;;;1.10;;
19794;SDS011;10057;59.402;17.866;2022-09-27T07:03:19;6.57;;;1.40;;
19794;SDS011;10057;59.402;17.866;2022-09-27T07:06:15;5.17;;;1.07;;
19794;SDS011;10057;59.402;17.866;2022-09-27T07:08:48;2.83;;;1.30;;
19794;SDS011;10057;59.402;17.866;2022-09-27T07:11:19;3.23;;;1.17;;
19794;SDS011;10057;59.402;17.866;2022-09-27T07:13:47;6.47;;;1.30;;
19794;SDS011;10057;59.402;17.866;2022-09-27T07:16:13;3.43;;;1.20;;
19794;SDS011;10057;59.402;17.866;2022-09-27T07:18:43;3.20;;;1.40;;
19794;SDS011;10057;59.402;17.866;2022-09-27T07:21:13;9.20;;;1.33;;
19794;SDS011;10057;59.402;17.866;2022-09-27T07:23:44;4.00;;;1.10;;
19794;SDS011;10057;59.402;17.866;2022-09-27T07:26:11;9.07;;;1.20;;
19794;SDS011;10057;59.402;17.866;2022-09-27T07:28:41;1.90;;;0.90;;
19794;SDS011;10057;59.402;17.866;2022-09-27T07:31:08;4.87;;;1.10;;
19794;SDS011;10057;59.402;17.866;2022-09-27T07:33:36;7.70;;;1.10;;
19794;SDS011;10057;59.402;17.866;2022-09-27T07:36:09;4.77;;;1.17;;
19794;SDS011;10057;59.402;17.866;2022-09-27T07:38:37;5.13;;;1.40;;
19794;SDS011;10057;59.402;17.866;2022-09-27T07:41:04;2.97;;;1.10;;
19794;SDS011;10057;59.402;17.866;2022-09-27T07:43:32;9.03;;;1.50;;
19794;SDS011;10057;59.402;17.866;2022-09-27T07:45:58;5.37;;;1.60;;
19794;SDS011;10057;59.402;17.866;2022-09-27T07:48:25;6.30;;;1.17;;
19794;SDS011;10057;59.402;17.866;2022-09-27T07:50:56;4.10;;;1.20;;
19794;SDS011;10057;59.402;17.866;2022-09-27T07:53:25;2.67;;;1.00;;
19794;SDS011;10057;59.402;17.866;2022-09-27T07:55:52;9.43;;;1.33;;
19794;SDS011;10057;59.402;17.866;2022-09-27T07:58:19;6.20;;;1.10;;
19794;SDS011;10057;59.402;17.866;2022-09-27T08:00:47;4.77;;;1.20;;
19794;SDS011;10057;59.402;17.866;2022-09-27T08:03:14;11.60;;;1.70;;
19794;SDS011;10057;59.402;17.866;2022-09-27T08:05:42;6.97;;;1.20;;
19794;SDS011;10057;59.402;17.866;2022-09-27T08:08:10;3.20;;;1.13;;
19794;SDS011;10057;59.402;17.866;2022-09-27T08:10:37;5.37;;;1.27;;
19794;SDS011;10057;59.402;17.866;2022-09-27T08:13:09;3.97;;;1.20;;
19794;SDS011;10057;59.402;17.866;2022-09-27T08:15:37;7.50;;;1.23;;
19794;SDS011;10057;59.402;17.866;2022-09-27T08:18:04;6.70;;;1.10;;
19794;SDS011;10057;59.402;17.866;2022-09-27T08:20:32;6.77;;;1.20;;
19794;SDS011;10057;59.402;17.866;2022-09-27T08:23:01;3.67;;;0.80;;
19794;SDS011;10057;59.402;17.866;2022-09-27T08:25:29;4.33;;;0.90;;
19794;SDS011;10057;59.402;17.866;2022-09-27T08:27:57;4.27;;;0.90;;
19794;SDS011;10057;59.402;17.866;2022-09-27T08:30:30;6.60;;;1.30;;
19794;SDS011;10057;59.402;17.866;2022-09-27T08:32:58;3.77;;;1.13;;
19794;SDS011;10057;59.402;17.866;2022-09-27T08:35:27;4.27;;;1.20;;
19794;SDS011;10057;59.402;17.866;2022-09-27T08:37:57;3.27;;;0.90;;
19794;SDS011;10057;59.402;17.866;2022-09-27T08:40:33;3.37;;;0.90;;
19794;SDS011;10057;59.402;17.866;2022-09-27T08:43:10;2.87;;;0.93;;
19794;SDS011;10057;59.402;17.866;2022-09-27T08:45:49;4.83;;;1.10;;
19794;SDS011;10057;59.402;17.866;2022-09-27T08:48:27;1.50;;;0.80;;
19794;SDS011;10057;59.402;17.866;2022-09-27T08:50:55;2.53;;;0.90;;
19794;SDS011;10057;59.402;17.866;2022-09-27T08:53:37;6.50;;;1.10;;
19794;SDS011;10057;59.402;17.866;2022-09-27T08:56:17;5.27;;;1.10;;
19794;SDS011;10057;59.402;17.866;2022-09-27T08:58:50;1.83;;;1.03;;
19794;SDS011;10057;59.402;17.866;2022-09-27T09:01:21;3.10;;;1.00;;
19794;SDS011;10057;59.402;17.866;2022-09-27T09:03:54;1.67;;;1.00;;
19794;SDS011;10057;59.402;17.866;2022-09-27T09:06:50;5.10;;;1.40;;
19794;SDS011;10057;59.402;17.866;2022-09-27T09:12:14;2.73;;;1.33;;
19794;SDS011;10057;59.402;17.866;2022-09-27T09:18:31;4.53;;;1.50;;
19794;SDS011;10057;59.402;17.866;2022-09-27T09:26:10;5.07;;;2.17;;
19794;SDS011;10057;59.402;17.866;2022-09-27T09:31:41;6.20;;;2.70;;
19794;SDS011;10057;59.402;17.866;2022-09-27T09:37:15;5.80;;;2.20;;
19794;SDS011;10057;59.402;17.866;2022-09-27T09:42:36;9.90;;;3.13;;
19794;SDS011;10057;59.402;17.866;2022-09-27T09:45:16;6.47;;;3.43;;
19794;SDS011;10057;59.402;17.866;2022-09-27T09:48:03;8.57;;;4.93;;
19794;SDS011;10057;59.402;17.866;2022-09-27T09:50:42;8.57;;;3.37;;
19794;SDS011;10057;59.402;17.866;2022-09-27T09:56:06;7.53;;;3.60;;
19794;SDS011;10057;59.402;17.866;2022-09-27T09:58:42;8.13;;;3.50;;
19794;SDS011;10057;59.402;17.866;2022-09-27T10:01:20;5.90;;;3.70;;
19794;SDS011;10057;59.402;17.866;2022-09-27T10:03:52;7.73;;;3.57;;
19794;SDS011;10057;59.402;17.866;2022-09-27T10:06:21;5.90;;;3.37;;
19794;SDS011;10057;59.402;17.866;2022-09-27T10:08:49;5.60;;;3.47;;
19794;SDS011;10057;59.402;17.866;2022-09-27T10:11:25;7.77;;;3.40;;
19794;SDS011;10057;59.402;17.866;2022-09-27T10:14:02;6.10;;;3.70;;
19794;SDS011;10057;59.402;17.866;2022-09-27T10:16:36;6.87;;;3.77;;
19794;SDS011;10057;59.402;17.866;2022-09-27T10:19:08;5.33;;;3.50;;
19794;SDS011;10057;59.402;17.866;2022-09-27T10:21:39;7.63;;;4.13;;
19794;SDS011;10057;59.402;17.866;2022-09-27T10:24:09;7.33;;;4.00;;
19794;SDS011;10057;59.402;17.866;2022-09-27T10:26:44;7.27;;;3.70;;
19794;SDS011;10057;59.402;17.866;2022-09-27T10:29:23;7.07;;;4.27;;
19794;SDS011;10057;59.402;17.866;2022-09-27T10:32:03;6.83;;;4.47;;
19794;SDS011;10057;59.402;17.866;2022-09-27T10:34:44;13.83;;;4.33;;
19794;SDS011;10057;59.402;17.866;2022-09-27T10:39:38;7.50;;;4.30;;
19794;SDS011;10057;59.402;17.866;2022-09-27T10:47:51;7.67;;;5.07;;
19794;SDS011;10057;59.402;17.866;2022-09-27T10:50:39;9.40;;;5.53;;
19794;SDS011;10057;59.402;17.866;2022-09-27T10:53:24;7.10;;;4.63;;
19794;SDS011;10057;59.402;17.866;2022-09-27T10:55:52;9.73;;;4.87;;
19794;SDS011;10057;59.402;17.866;2022-09-27T10:58:53;7.37;;;5.23;;
19794;SDS011;10057;59.402;17.866;2022-09-27T11:01:12;9.10;;;5.40;;
19794;SDS011;10057;59.402;17.866;2022-09-27T11:03:49;11.13;;;5.73;;
19794;SDS011;10057;59.402;17.866;2022-09-27T11:08:53;9.80;;;5.67;;
19794;SDS011;10057;59.402;17.866;2022-09-27T11:11:25;11.03;;;6.67;;
19794;SDS011;10057;59.402;17.866;2022-09-27T11:27:36;13.57;;;8.40;;
19794;SDS011;10057;59.402;17.866;2022-09-27T11:46:29;16.53;;;10.10;;
19794;SDS011;10057;59.402;17.866;2022-09-27T11:56:48;21.23;;;11.67;;
19794;SDS011;10057;59.402;17.866;2022-09-27T12:01:55;20.97;;;11.43;;
19794;SDS011;10057;59.402;17.866;2022-09-27T12:08:03;27.13;;;11.80;;
19794;SDS011;10057;59.402;17.866;2022-09-27T12:10:19;18.80;;;11.53;;
19794;SDS011;10057;59.402;17.866;2022-09-27T12:12:50;19.20;;;11.53;;
19794;SDS011;10057;59.402;17.866;2022-09-27T12:15:24;17.07;;;11.43;;
19794;SDS011;10057;59.402;17.866;2022-09-27T12:18:08;22.60;;;12.47;;
19794;SDS011;10057;59.402;17.866;2022-09-27T12:20:37;20.67;;;12.20;;
19794;SDS011;10057;59.402;17.866;2022-09-27T12:23:28;18.10;;;11.40;;
19794;SDS011;10057;59.402;17.866;2022-09-27T12:28:45;18.50;;;11.20;;
19794;SDS011;10057;59.402;17.866;2022-09-27T12:31:21;19.97;;;11.77;;
19794;SDS011;10057;59.402;17.866;2022-09-27T12:36:52;20.33;;;11.50;;
19794;SDS011;10057;59.402;17.866;2022-09-27T12:39:25;19.13;;;11.83;;
19794;SDS011;10057;59.402;17.866;2022-09-27T12:42:00;20.73;;;11.83;;
19794;SDS011;10057;59.402;17.866;2022-09-27T12:44:41;16.57;;;11.00;;
19794;SDS011;10057;59.402;17.866;2022-09-27T12:50:14;20.60;;;10.93;;
19794;SDS011;10057;59.402;17.866;2022-09-27T12:52:50;19.80;;;11.70;;
19794;SDS011;10057;59.402;17.866;2022-09-27T13:04:20;18.10;;;12.03;;
19794;SDS011;10057;59.402;17.866;2022-09-27T13:09:54;20.73;;;12.03;;
19794;SDS011;10057;59.402;17.866;2022-09-27T13:12:51;21.07;;;12.13;;
19794;SDS011;10057;59.402;17.866;2022-09-27T13:15:27;20.40;;;11.87;;
19794;SDS011;10057;59.402;17.866;2022-09-27T13:18:00;23.00;;;12.17;;
19794;SDS011;10057;59.402;17.866;2022-09-27T13:23:01;25.90;;;12.57;;
19794;SDS011;10057;59.402;17.866;2022-09-27T13:25:57;19.70;;;11.87;;
19794;SDS011;10057;59.402;17.866;2022-09-27T13:31:02;20.87;;;11.57;;
19794;SDS011;10057;59.402;17.866;2022-09-27T13:33:33;21.87;;;11.83;;
19794;SDS011;10057;59.402;17.866;2022-09-27T13:39:14;25.13;;;11.40;;
19794;SDS011;10057;59.402;17.866;2022-09-27T13:52:56;22.37;;;11.27;;
19794;SDS011;10057;59.402;17.866;2022-09-27T13:55:39;20.67;;;11.27;;
19794;SDS011;10057;59.402;17.866;2022-09-27T14:01:10;15.50;;;10.20;;
19794;SDS011;10057;59.402;17.866;2022-09-27T14:03:49;14.73;;;9.43;;
19794;SDS011;10057;59.402;17.866;2022-09-27T14:06:19;20.37;;;10.07;;
19794;SDS011;10057;59.402;17.866;2022-09-27T14:08:52;18.20;;;10.00;;
19794;SDS011;10057;59.402;17.866;2022-09-27T14:11:29;17.93;;;10.33;;
19794;SDS011;10057;59.402;17.866;2022-09-27T14:13:59;17.83;;;10.20;;
19794;SDS011;10057;59.402;17.866;2022-09-27T14:16:29;15.27;;;9.93;;
19794;SDS011;10057;59.402;17.866;2022-09-27T14:18:59;15.43;;;9.60;;
19794;SDS011;10057;59.402;17.866;2022-09-27T14:21:29;17.17;;;10.03;;
19794;SDS011;10057;59.402;17.866;2022-09-27T14:26:48;15.73;;;9.93;;
19794;SDS011;10057;59.402;17.866;2022-09-27T14:29:20;17.37;;;9.77;;
19794;SDS011;10057;59.402;17.866;2022-09-27T14:32:09;17.00;;;9.60;;
19794;SDS011;10057;59.402;17.866;2022-09-27T14:34:37;15.57;;;9.07;;
19794;SDS011;10057;59.402;17.866;2022-09-27T14:37:04;15.77;;;9.43;;
19794;SDS011;10057;59.402;17.866;2022-09-27T14:39:53;17.70;;;9.20;;
19794;SDS011;10057;59.402;17.866;2022-09-27T14:42:22;21.73;;;9.23;;
19794;SDS011;10057;59.402;17.866;2022-09-27T14:44:51;15.40;;;9.57;;
19794;SDS011;10057;59.402;17.866;2022-09-27T14:47:22;17.10;;;9.20;;
19794;SDS011;10057;59.402;17.866;2022-09-27T14:50:00;15.70;;;8.77;;
19794;SDS011;10057;59.402;17.866;2022-09-27T14:52:38;15.70;;;8.63;;
19794;SDS011;10057;59.402;17.866;2022-09-27T14:55:07;13.87;;;9.30;;
19794;SDS011;10057;59.402;17.866;2022-09-27T14:57:39;14.83;;;8.90;;
19794;SDS011;10057;59.402;17.866;2022-09-27T15:00:17;15.93;;;8.60;;
19794;SDS011;10057;59.402;17.866;2022-09-27T15:02:46;14.57;;;9.00;;
19794;SDS011;10057;59.402;17.866;2022-09-27T15:05:16;12.13;;;7.87;;
19794;SDS011;10057;59.402;17.866;2022-09-27T15:07:46;14.07;;;8.73;;
19794;SDS011;10057;59.402;17.866;2022-09-27T15:10:17;17.80;;;8.33;;
19794;SDS011;10057;59.402;17.866;2022-09-27T15:12:46;15.27;;;8.10;;
19794;SDS011;10057;59.402;17.866;2022-09-27T15:15:17;18.73;;;8.87;;
19794;SDS011;10057;59.402;17.866;2022-09-27T15:17:47;13.70;;;8.20;;
19794;SDS011;10057;59.402;17.866;2022-09-27T15:20:24;15.33;;;8.57;;
19794;SDS011;10057;59.402;17.866;2022-09-27T15:23:01;12.87;;;8.27;;
19794;SDS011;10057;59.402;17.866;2022-09-27T15:25:35;16.40;;;8.23;;
19794;SDS011;10057;59.402;17.866;2022-09-27T15:30:37;14.67;;;8.00;;
19794;SDS011;10057;59.402;17.866;2022-09-27T15:33:06;12.30;;;7.83;;
19794;SDS011;10057;59.402;17.866;2022-09-27T15:35:48;11.27;;;7.70;;
19794;SDS011;10057;59.402;17.866;2022-09-27T15:41:00;15.43;;;8.10;;
19794;SDS011;10057;59.402;17.866;2022-09-27T15:46:00;13.07;;;8.07;;
19794;SDS011;10057;59.402;17.866;2022-09-27T15:51:43;15.47;;;7.53;;
19794;SDS011;10057;59.402;17.866;2022-09-27T15:54:16;11.60;;;7.57;;
19794;SDS011;10057;59.402;17.866;2022-09-27T15:56:44;11.03;;;6.90;;
19794;SDS011;10057;59.402;17.866;2022-09-27T15:59:16;12.40;;;7.43;;
19794;SDS011;10057;59.402;17.866;2022-09-27T16:01:44;13.20;;;7.50;;
19794;SDS011;10057;59.402;17.866;2022-09-27T16:04:11;12.07;;;7.53;;
19794;SDS011;10057;59.402;17.866;2022-09-27T16:06:38;12.50;;;6.93;;
19794;SDS011;10057;59.402;17.866;2022-09-27T16:09:15;13.60;;;7.90;;
19794;SDS011;10057;59.402;17.866;2022-09-27T16:11:44;15.00;;;7.20;;
19794;SDS011;10057;59.402;17.866;2022-09-27T16:14:15;12.27;;;7.20;;
19794;SDS011;10057;59.402;17.866;2022-09-27T16:16:44;13.57;;;6.80;;
19794;SDS011;10057;59.402;17.866;2022-09-27T16:19:13;10.50;;;7.13;;
19794;SDS011;10057;59.402;17.866;2022-09-27T16:21:40;10.17;;;6.80;;
19794;SDS011;10057;59.402;17.866;2022-09-27T16:24:08;11.63;;;7.40;;
19794;SDS011;10057;59.402;17.866;2022-09-27T16:26:36;16.10;;;8.03;;
19794;SDS011;10057;59.402;17.866;2022-09-27T16:29:07;10.40;;;7.07;;
19794;SDS011;10057;59.402;17.866;2022-09-27T16:31:38;13.90;;;7.27;;
19794;SDS011;10057;59.402;17.866;2022-09-27T16:34:07;12.93;;;7.40;;
19794;SDS011;10057;59.402;17.866;2022-09-27T16:36:35;15.17;;;7.80;;
19794;SDS011;10057;59.402;17.866;2022-09-27T16:39:02;9.83;;;7.13;;
19794;SDS011;10057;59.402;17.866;2022-09-27T16:41:31;13.90;;;7.33;;
19794;SDS011;10057;59.402;17.866;2022-09-27T16:43:59;16.23;;;8.13;;
19794;SDS011;10057;59.402;17.866;2022-09-27T16:46:31;14.43;;;8.17;;
19794;SDS011;10057;59.402;17.866;2022-09-27T16:49:01;14.60;;;7.60;;
19794;SDS011;10057;59.402;17.866;2022-09-27T16:51:34;14.17;;;8.23;;
19794;SDS011;10057;59.402;17.866;2022-09-27T16:54:21;13.97;;;7.73;;
19794;SDS011;10057;59.402;17.866;2022-09-27T16:56:53;15.53;;;8.57;;
19794;SDS011;10057;59.402;17.866;2022-09-27T16:59:25;16.63;;;7.97;;
19794;SDS011;10057;59.402;17.866;2022-09-27T17:01:52;12.97;;;8.57;;
19794;SDS011;10057;59.402;17.866;2022-09-27T17:04:26;13.83;;;8.40;;
19794;SDS011;10057;59.402;17.866;2022-09-27T17:06:56;13.40;;;7.57;;
19794;SDS011;10057;59.402;17.866;2022-09-27T17:09:25;16.17;;;8.23;;
19794;SDS011;10057;59.402;17.866;2022-09-27T17:11:57;17.17;;;8.47;;
19794;SDS011;10057;59.402;17.866;2022-09-27T17:14:33;13.43;;;8.50;;
19794;SDS011;10057;59.402;17.866;2022-09-27T17:17:03;13.87;;;8.50;;
19794;SDS011;10057;59.402;17.866;2022-09-27T17:19:35;17.60;;;8.93;;
19794;SDS011;10057;59.402;17.866;2022-09-27T17:22:15;13.43;;;8.47;;
19794;SDS011;10057;59.402;17.866;2022-09-27T17:24:47;14.83;;;8.07;;
19794;SDS011;10057;59.402;17.866;2022-09-27T17:27:14;22.63;;;9.57;;
19794;SDS011;10057;59.402;17.866;2022-09-27T17:29:43;14.47;;;8.83;;
19794;SDS011;10057;59.402;17.866;2022-09-27T17:32:10;15.60;;;8.83;;
19794;SDS011;10057;59.402;17.866;2022-09-27T17:34:38;15.97;;;8.80;;
19794;SDS011;10057;59.402;17.866;2022-09-27T17:37:17;18.97;;;9.43;;
19794;SDS011;10057;59.402;17.866;2022-09-27T17:39:44;13.67;;;8.73;;
19794;SDS011;10057;59.402;17.866;2022-09-27T17:42:14;17.67;;;9.10;;
19794;SDS011;10057;59.402;17.866;2022-09-27T17:44:41;17.80;;;9.07;;
19794;SDS011;10057;59.402;17.866;2022-09-27T17:47:12;17.37;;;8.90;;
19794;SDS011;10057;59.402;17.866;2022-09-27T17:50:00;14.87;;;9.00;;
19794;SDS011;10057;59.402;17.866;2022-09-27T17:52:45;21.27;;;9.33;;
19794;SDS011;10057;59.402;17.866;2022-09-27T17:55:12;18.20;;;9.93;;
19794;SDS011;10057;59.402;17.866;2022-09-27T17:57:40;18.23;;;9.40;;
19794;SDS011;10057;59.402;17.866;2022-09-27T18:00:06;16.90;;;8.97;;